RLTS YMES-YTEM
Flight info
| Callsign | RLTS |
|---|---|
| Flight time | 1h 22m |
| Altitude | 6000 |
| Route | YMES ESL5 YHOT DCT AY W638 WG DCT YTEM |
| Aircraft | PC21/L-SDFGRWY/S |
Departure
| Time | 2026-05-06 11:07 |
|---|---|
| Airport | RAAF Base East Sale (YMES) |
Arrival
| Time | 2026-05-06 12:29 |
|---|---|
| Airport | Temora Airport (YTEM) |
| Time | Latitude | Longitude | Altitude | Speed | Heading |
|---|---|---|---|---|---|
| 2026-05-06 10:51 | -38.09901 | 147.13594 | 26 ft | 0 kts | 188° |
| 2026-05-06 10:59 | -38.09905 | 147.13593 | 24 ft | 3 kts | 189° |
| 2026-05-06 10:59 | -38.09924 | 147.13610 | 27 ft | 5 kts | 102° |
| 2026-05-06 11:00 | -38.09931 | 147.13667 | 25 ft | 7 kts | 99° |
| 2026-05-06 11:00 | -38.09939 | 147.13730 | 25 ft | 7 kts | 98° |
| 2026-05-06 11:00 | -38.09946 | 147.13788 | 26 ft | 6 kts | 98° |
| 2026-05-06 11:00 | -38.09952 | 147.13841 | 26 ft | 6 kts | 99° |
| 2026-05-06 11:01 | -38.09952 | 147.13887 | 26 ft | 4 kts | 39° |
| 2026-05-06 11:01 | -38.09918 | 147.13904 | 28 ft | 6 kts | 50° |
| 2026-05-06 11:01 | -38.09918 | 147.13965 | 28 ft | 9 kts | 99° |
| 2026-05-06 11:01 | -38.09906 | 147.14033 | 28 ft | 7 kts | 12° |
| 2026-05-06 11:02 | -38.09857 | 147.14047 | 29 ft | 8 kts | 36° |
| 2026-05-06 11:02 | -38.09858 | 147.14125 | 27 ft | 14 kts | 99° |
| 2026-05-06 11:02 | -38.09874 | 147.14256 | 23 ft | 16 kts | 99° |
| 2026-05-06 11:02 | -38.09891 | 147.14393 | 23 ft | 15 kts | 98° |
| 2026-05-06 11:03 | -38.09907 | 147.14526 | 21 ft | 15 kts | 99° |
| 2026-05-06 11:03 | -38.09924 | 147.14659 | 18 ft | 15 kts | 99° |
| 2026-05-06 11:03 | -38.09940 | 147.14792 | 18 ft | 15 kts | 99° |
| 2026-05-06 11:03 | -38.09956 | 147.14922 | 19 ft | 16 kts | 99° |
| 2026-05-06 11:04 | -38.09975 | 147.15071 | 21 ft | 17 kts | 99° |
| 2026-05-06 11:04 | -38.09992 | 147.15209 | 23 ft | 14 kts | 98° |
| 2026-05-06 11:04 | -38.09970 | 147.15294 | 24 ft | 7 kts | 45° |
| 2026-05-06 11:04 | -38.09963 | 147.15301 | 26 ft | 0 kts | 35° |
| 2026-05-06 11:05 | -38.09960 | 147.15304 | 25 ft | 5 kts | 34° |
| 2026-05-06 11:05 | -38.09897 | 147.15324 | 27 ft | 10 kts | 342° |
| 2026-05-06 11:06 | -38.09865 | 147.15240 | 22 ft | 11 kts | 279° |
| 2026-05-06 11:06 | -38.09858 | 147.15183 | 21 ft | 0 kts | 278° |
| 2026-05-06 11:07 | -38.09844 | 147.15065 | 21 ft | 49 kts | 278° |
| 2026-05-06 11:07 | -38.09750 | 147.14303 | 43 ft | 117 kts | 279° |
| 2026-05-06 11:07 | -38.09600 | 147.13076 | 262 ft | 166 kts | 279° |
| 2026-05-06 11:07 | -38.09407 | 147.11484 | 683 ft | 193 kts | 278° |
| 2026-05-06 11:08 | -38.09204 | 147.09762 | 1270 ft | 201 kts | 277° |
| 2026-05-06 11:08 | -38.08636 | 147.08165 | 1999 ft | 209 kts | 317° |
| 2026-05-06 11:08 | -38.07177 | 147.07850 | 2595 ft | 233 kts | 14° |
| 2026-05-06 11:08 | -38.05934 | 147.09249 | 3128 ft | 253 kts | 60° |
| 2026-05-06 11:09 | -38.05284 | 147.11348 | 3864 ft | 256 kts | 70° |
| 2026-05-06 11:09 | -38.04738 | 147.13489 | 4722 ft | 255 kts | 73° |
| 2026-05-06 11:09 | -38.04266 | 147.15638 | 5425 ft | 259 kts | 76° |
| 2026-05-06 11:09 | -38.03593 | 147.17771 | 5877 ft | 268 kts | 45° |
| 2026-05-06 11:10 | -38.01969 | 147.18924 | 6246 ft | 267 kts | 17° |
| 2026-05-06 11:10 | -38.00210 | 147.19549 | 6957 ft | 262 kts | 11° |
| 2026-05-06 11:10 | -37.98417 | 147.20025 | 7536 ft | 265 kts | 9° |
| 2026-05-06 11:10 | -37.96599 | 147.20483 | 8000 ft | 272 kts | 9° |
| 2026-05-06 11:11 | -37.94660 | 147.20918 | 7743 ft | 296 kts | 7° |
| 2026-05-06 11:11 | -37.92564 | 147.21306 | 7539 ft | 311 kts | 6° |
| 2026-05-06 11:11 | -37.90409 | 147.21674 | 7539 ft | 311 kts | 5° |
| 2026-05-06 11:11 | -37.88255 | 147.22019 | 7636 ft | 313 kts | 5° |
| 2026-05-06 11:12 | -37.86095 | 147.22359 | 7603 ft | 313 kts | 5° |
| 2026-05-06 11:12 | -37.83922 | 147.22696 | 7476 ft | 315 kts | 5° |
| 2026-05-06 11:12 | -37.81764 | 147.23045 | 7366 ft | 316 kts | 5° |
| 2026-05-06 11:12 | -37.79588 | 147.23424 | 7319 ft | 314 kts | 6° |
| 2026-05-06 11:13 | -37.77430 | 147.23831 | 7289 ft | 313 kts | 7° |
| 2026-05-06 11:13 | -37.75282 | 147.24274 | 7225 ft | 313 kts | 7° |
| 2026-05-06 11:13 | -37.73124 | 147.24745 | 7139 ft | 314 kts | 8° |
| 2026-05-06 11:13 | -37.70976 | 147.25230 | 7077 ft | 314 kts | 8° |
| 2026-05-06 11:14 | -37.68833 | 147.25721 | 7050 ft | 313 kts | 8° |
| 2026-05-06 11:14 | -37.66690 | 147.26215 | 7028 ft | 313 kts | 8° |
| 2026-05-06 11:14 | -37.64547 | 147.26700 | 7000 ft | 313 kts | 7° |
| 2026-05-06 11:14 | -37.62426 | 147.27126 | 6982 ft | 312 kts | 6° |
| 2026-05-06 11:15 | -37.60280 | 147.27496 | 6985 ft | 311 kts | 5° |
| 2026-05-06 11:15 | -37.58134 | 147.27817 | 6970 ft | 311 kts | 4° |
| 2026-05-06 11:15 | -37.55987 | 147.28080 | 7060 ft | 307 kts | 2° |
| 2026-05-06 11:15 | -37.53879 | 147.28300 | 7483 ft | 300 kts | 2° |
| 2026-05-06 11:16 | -37.51780 | 147.28480 | 7562 ft | 306 kts | 1° |
| 2026-05-06 11:16 | -37.49626 | 147.28616 | 7496 ft | 311 kts | 360° |
| 2026-05-06 11:16 | -37.47456 | 147.28707 | 7460 ft | 311 kts | 360° |
| 2026-05-06 11:16 | -37.45299 | 147.28824 | 7546 ft | 310 kts | 0° |
| 2026-05-06 11:17 | -37.43142 | 147.28949 | 7567 ft | 310 kts | 0° |
| 2026-05-06 11:17 | -37.41003 | 147.29092 | 7495 ft | 312 kts | 1° |
| 2026-05-06 11:17 | -37.38837 | 147.29298 | 7425 ft | 313 kts | 2° |
| 2026-05-06 11:17 | -37.36675 | 147.29499 | 7513 ft | 307 kts | 0° |
| 2026-05-06 11:18 | -37.34538 | 147.29507 | 7509 ft | 307 kts | 355° |
| 2026-05-06 11:18 | -37.32412 | 147.29290 | 7481 ft | 306 kts | 351° |
| 2026-05-06 11:18 | -37.30301 | 147.28985 | 7473 ft | 307 kts | 356° |
| 2026-05-06 11:18 | -37.28158 | 147.29097 | 7428 ft | 309 kts | 2° |
| 2026-05-06 11:19 | -37.26018 | 147.29373 | 7406 ft | 309 kts | 5° |
| 2026-05-06 11:19 | -37.23886 | 147.29757 | 7342 ft | 310 kts | 7° |
| 2026-05-06 11:19 | -37.21777 | 147.30186 | 7210 ft | 312 kts | 7° |
| 2026-05-06 11:19 | -37.19640 | 147.30638 | 7156 ft | 310 kts | 7° |
| 2026-05-06 11:20 | -37.17522 | 147.31090 | 7135 ft | 308 kts | 7° |
| 2026-05-06 11:20 | -37.15407 | 147.31528 | 7104 ft | 308 kts | 7° |
| 2026-05-06 11:20 | -37.13288 | 147.31951 | 7021 ft | 310 kts | 6° |
| 2026-05-06 11:20 | -37.11154 | 147.32353 | 6952 ft | 310 kts | 6° |
| 2026-05-06 11:21 | -37.09744 | 147.32616 | 6928 ft | 309 kts | 6° |
| 2026-05-06 11:21 | -37.07002 | 147.33580 | 6848 ft | 313 kts | 32° |
| 2026-05-06 11:21 | -37.05414 | 147.35471 | 6746 ft | 314 kts | 40° |
| 2026-05-06 11:21 | -37.04144 | 147.36221 | 6779 ft | 304 kts | 2° |
| 2026-05-06 11:22 | -37.02401 | 147.35106 | 6937 ft | 292 kts | 299° |
| 2026-05-06 11:22 | -37.02497 | 147.32691 | 7015 ft | 297 kts | 235° |
| 2026-05-06 11:22 | -37.05020 | 147.31718 | 6891 ft | 313 kts | 162° |
| 2026-05-06 11:22 | -37.06160 | 147.32832 | 6905 ft | 315 kts | 122° |
| 2026-05-06 11:23 | -37.06205 | 147.35450 | 6785 ft | 313 kts | 55° |
| 2026-05-06 11:23 | -37.04374 | 147.36397 | 6880 ft | 297 kts | 345° |
| 2026-05-06 11:23 | -37.02451 | 147.35483 | 7042 ft | 297 kts | 336° |
| 2026-05-06 11:23 | -37.00503 | 147.34633 | 7313 ft | 295 kts | 341° |
| 2026-05-06 11:24 | -36.98549 | 147.33871 | 7563 ft | 294 kts | 341° |
| 2026-05-06 11:24 | -36.96592 | 147.33098 | 7705 ft | 297 kts | 340° |
| 2026-05-06 11:24 | -36.94608 | 147.32349 | 7833 ft | 300 kts | 341° |
| 2026-05-06 11:24 | -36.92556 | 147.31588 | 7375 ft | 314 kts | 341° |
| 2026-05-06 11:25 | -36.90467 | 147.30779 | 7228 ft | 313 kts | 340° |
| 2026-05-06 11:25 | -36.88436 | 147.29921 | 7125 ft | 311 kts | 339° |
| 2026-05-06 11:25 | -36.86396 | 147.29048 | 7047 ft | 310 kts | 340° |
| 2026-05-06 11:25 | -36.84360 | 147.28170 | 7017 ft | 308 kts | 339° |
| 2026-05-06 11:26 | -36.82345 | 147.27269 | 7147 ft | 301 kts | 338° |
| 2026-05-06 11:26 | -36.80499 | 147.26103 | 6738 ft | 310 kts | 319° |
| 2026-05-06 11:26 | -36.79097 | 147.23948 | 5726 ft | 327 kts | 304° |
| 2026-05-06 11:26 | -36.77500 | 147.21966 | 5171 ft | 326 kts | 326° |
| 2026-05-06 11:27 | -36.75536 | 147.20540 | 4621 ft | 325 kts | 330° |
| 2026-05-06 11:27 | -36.73571 | 147.19186 | 4401 ft | 319 kts | 331° |
| 2026-05-06 11:27 | -36.71635 | 147.17855 | 4217 ft | 317 kts | 330° |
| 2026-05-06 11:27 | -36.69724 | 147.16525 | 4197 ft | 311 kts | 330° |
| 2026-05-06 11:28 | -36.67838 | 147.15217 | 4116 ft | 309 kts | 330° |
| 2026-05-06 11:28 | -36.65959 | 147.13931 | 4023 ft | 308 kts | 331° |
| 2026-05-06 11:28 | -36.64079 | 147.12690 | 3846 ft | 310 kts | 332° |
| 2026-05-06 11:28 | -36.62132 | 147.11509 | 3668 ft | 311 kts | 334° |
| 2026-05-06 11:29 | -36.60164 | 147.10414 | 3642 ft | 308 kts | 335° |
| 2026-05-06 11:29 | -36.58218 | 147.09353 | 3659 ft | 304 kts | 336° |
| 2026-05-06 11:29 | -36.56257 | 147.08365 | 3581 ft | 305 kts | 342° |
| 2026-05-06 11:29 | -36.54187 | 147.07779 | 3525 ft | 304 kts | 348° |
| 2026-05-06 11:30 | -36.52112 | 147.07308 | 3543 ft | 302 kts | 348° |
| 2026-05-06 11:30 | -36.50050 | 147.06808 | 3516 ft | 302 kts | 348° |
| 2026-05-06 11:30 | -36.47995 | 147.06294 | 3460 ft | 302 kts | 347° |
| 2026-05-06 11:30 | -36.45935 | 147.05769 | 3404 ft | 302 kts | 347° |
| 2026-05-06 11:31 | -36.43876 | 147.05236 | 3350 ft | 302 kts | 347° |
| 2026-05-06 11:31 | -36.41819 | 147.04718 | 3345 ft | 300 kts | 348° |
| 2026-05-06 11:31 | -36.39765 | 147.04224 | 3261 ft | 300 kts | 348° |
| 2026-05-06 11:31 | -36.37695 | 147.03961 | 2931 ft | 303 kts | 5° |
| 2026-05-06 11:32 | -36.35801 | 147.05148 | 2079 ft | 321 kts | 42° |
| 2026-05-06 11:32 | -36.34169 | 147.06916 | 2539 ft | 282 kts | 24° |
| 2026-05-06 11:32 | -36.32433 | 147.06639 | 2963 ft | 272 kts | 327° |
| 2026-05-06 11:32 | -36.30822 | 147.05017 | 1435 ft | 320 kts | 319° |
| 2026-05-06 11:33 | -36.30018 | 147.04166 | 4807 ft | 116 kts | 139° |
| 2026-05-06 11:33 | -36.30100 | 147.04415 | 1842 ft | 264 kts | 323° |
| 2026-05-06 11:33 | -36.28276 | 147.03067 | 1492 ft | 297 kts | 339° |
| 2026-05-06 11:33 | -36.26358 | 147.02318 | 1947 ft | 283 kts | 343° |
| 2026-05-06 11:34 | -36.24478 | 147.01643 | 2243 ft | 279 kts | 343° |
| 2026-05-06 11:34 | -36.22608 | 147.00997 | 2470 ft | 279 kts | 344° |
| 2026-05-06 11:34 | -36.20749 | 147.00390 | 2630 ft | 281 kts | 344° |
| 2026-05-06 11:34 | -36.18846 | 146.99782 | 2739 ft | 284 kts | 344° |
| 2026-05-06 11:35 | -36.16915 | 146.99155 | 2800 ft | 287 kts | 344° |
| 2026-05-06 11:35 | -36.14970 | 146.98543 | 2834 ft | 290 kts | 344° |
| 2026-05-06 11:35 | -36.12997 | 146.97927 | 2838 ft | 293 kts | 344° |
| 2026-05-06 11:35 | -36.11011 | 146.97316 | 2818 ft | 296 kts | 345° |
| 2026-05-06 11:36 | -36.09001 | 146.96719 | 2791 ft | 298 kts | 345° |
| 2026-05-06 11:36 | -36.06968 | 146.96154 | 2714 ft | 301 kts | 348° |
| 2026-05-06 11:36 | -36.04886 | 146.96073 | 2777 ft | 301 kts | 7° |
| 2026-05-06 11:36 | -36.02845 | 146.96661 | 2776 ft | 302 kts | 12° |
| 2026-05-06 11:37 | -36.00817 | 146.97338 | 2843 ft | 300 kts | 16° |
| 2026-05-06 11:37 | -35.99051 | 146.98627 | 2892 ft | 304 kts | 41° |
| 2026-05-06 11:37 | -35.97853 | 147.00791 | 2885 ft | 309 kts | 67° |
| 2026-05-06 11:37 | -35.97459 | 147.03365 | 3048 ft | 306 kts | 85° |
| 2026-05-06 11:38 | -35.96581 | 147.05634 | 3200 ft | 299 kts | 33° |
| 2026-05-06 11:38 | -35.94651 | 147.06536 | 3276 ft | 296 kts | 15° |
| 2026-05-06 11:38 | -35.92704 | 147.07258 | 3651 ft | 291 kts | 15° |
| 2026-05-06 11:38 | -35.90793 | 147.08121 | 3972 ft | 294 kts | 19° |
| 2026-05-06 11:39 | -35.88876 | 147.09049 | 4256 ft | 296 kts | 19° |
| 2026-05-06 11:39 | -35.86953 | 147.10000 | 4411 ft | 298 kts | 20° |
| 2026-05-06 11:39 | -35.85058 | 147.10980 | 4534 ft | 300 kts | 21° |
| 2026-05-06 11:39 | -35.83141 | 147.12010 | 4639 ft | 302 kts | 21° |
| 2026-05-06 11:40 | -35.81219 | 147.13067 | 4733 ft | 303 kts | 22° |
| 2026-05-06 11:40 | -35.79284 | 147.14114 | 4838 ft | 304 kts | 21° |
| 2026-05-06 11:40 | -35.77327 | 147.15119 | 4934 ft | 305 kts | 20° |
| 2026-05-06 11:40 | -35.75359 | 147.16089 | 5056 ft | 304 kts | 19° |
| 2026-05-06 11:41 | -35.73382 | 147.17023 | 5197 ft | 304 kts | 18° |
| 2026-05-06 11:41 | -35.71397 | 147.17929 | 5321 ft | 305 kts | 18° |
| 2026-05-06 11:41 | -35.69401 | 147.18837 | 5391 ft | 307 kts | 18° |
| 2026-05-06 11:41 | -35.67397 | 147.19793 | 5418 ft | 310 kts | 19° |
| 2026-05-06 11:42 | -35.65402 | 147.20828 | 5448 ft | 313 kts | 23° |
| 2026-05-06 11:42 | -35.63458 | 147.22060 | 5437 ft | 316 kts | 27° |
| 2026-05-06 11:42 | -35.61575 | 147.23472 | 5434 ft | 318 kts | 32° |
| 2026-05-06 11:42 | -35.59774 | 147.25057 | 5451 ft | 319 kts | 32° |
| 2026-05-06 11:43 | -35.57848 | 147.26313 | 5447 ft | 318 kts | 21° |
| 2026-05-06 11:43 | -35.55805 | 147.27395 | 5419 ft | 320 kts | 21° |
| 2026-05-06 11:43 | -35.53757 | 147.28454 | 5400 ft | 320 kts | 21° |
| 2026-05-06 11:44 | -35.49662 | 147.30614 | 5400 ft | 321 kts | 21° |
| 2026-05-06 11:44 | -35.47604 | 147.31677 | 5397 ft | 321 kts | 20° |
| 2026-05-06 11:44 | -35.45525 | 147.32685 | 5387 ft | 321 kts | 19° |
| 2026-05-06 11:44 | -35.43442 | 147.33673 | 5384 ft | 321 kts | 19° |
| 2026-05-06 11:45 | -35.41354 | 147.34649 | 5374 ft | 321 kts | 19° |
| 2026-05-06 11:45 | -35.39293 | 147.35667 | 5374 ft | 322 kts | 20° |
| 2026-05-06 11:45 | -35.37216 | 147.36697 | 5372 ft | 322 kts | 20° |
| 2026-05-06 11:45 | -35.35142 | 147.37723 | 5380 ft | 321 kts | 20° |
| 2026-05-06 11:46 | -35.33064 | 147.38740 | 5372 ft | 322 kts | 19° |
| 2026-05-06 11:46 | -35.31003 | 147.39743 | 5356 ft | 323 kts | 19° |
| 2026-05-06 11:46 | -35.28884 | 147.40776 | 5314 ft | 324 kts | 20° |
| 2026-05-06 11:46 | -35.26781 | 147.41805 | 5271 ft | 325 kts | 20° |
| 2026-05-06 11:47 | -35.24683 | 147.42833 | 5231 ft | 325 kts | 20° |
| 2026-05-06 11:47 | -35.22580 | 147.43865 | 5191 ft | 326 kts | 20° |
| 2026-05-06 11:47 | -35.20469 | 147.44889 | 5101 ft | 327 kts | 19° |
| 2026-05-06 11:47 | -35.18344 | 147.45896 | 4992 ft | 328 kts | 19° |
| 2026-05-06 11:48 | -35.16159 | 147.46650 | 4898 ft | 325 kts | 5° |
| 2026-05-06 11:48 | -35.13907 | 147.46817 | 4856 ft | 322 kts | 359° |
| 2026-05-06 11:48 | -35.11704 | 147.46933 | 4853 ft | 321 kts | 360° |
| 2026-05-06 11:48 | -35.09471 | 147.47075 | 4766 ft | 322 kts | 0° |
| 2026-05-06 11:49 | -35.07234 | 147.47241 | 4719 ft | 321 kts | 1° |
| 2026-05-06 11:49 | -35.05004 | 147.47433 | 4671 ft | 321 kts | 1° |
| 2026-05-06 11:49 | -35.02772 | 147.47610 | 4646 ft | 320 kts | 0° |
| 2026-05-06 11:49 | -35.00540 | 147.47741 | 4600 ft | 320 kts | 360° |
| 2026-05-06 11:50 | -34.98318 | 147.47861 | 4567 ft | 320 kts | 360° |
| 2026-05-06 11:50 | -34.96092 | 147.47971 | 4551 ft | 319 kts | 359° |
| 2026-05-06 11:50 | -34.93871 | 147.48098 | 4524 ft | 319 kts | 0° |
| 2026-05-06 11:50 | -34.91652 | 147.48255 | 4433 ft | 321 kts | 1° |
| 2026-05-06 11:51 | -34.89431 | 147.48447 | 4445 ft | 319 kts | 1° |
| 2026-05-06 11:51 | -34.87211 | 147.48637 | 4372 ft | 320 kts | 1° |
| 2026-05-06 11:51 | -34.84983 | 147.48837 | 4290 ft | 321 kts | 2° |
| 2026-05-06 11:51 | -34.82781 | 147.49044 | 4235 ft | 321 kts | 1° |
| 2026-05-06 11:52 | -34.80554 | 147.49212 | 4194 ft | 320 kts | 0° |
| 2026-05-06 11:52 | -34.78333 | 147.49358 | 4189 ft | 318 kts | 0° |
| 2026-05-06 11:52 | -34.76122 | 147.49506 | 4166 ft | 318 kts | 0° |
| 2026-05-06 11:52 | -34.73904 | 147.49650 | 4104 ft | 319 kts | 0° |
| 2026-05-06 11:53 | -34.71687 | 147.49780 | 4059 ft | 319 kts | 360° |
| 2026-05-06 11:53 | -34.69473 | 147.49895 | 4032 ft | 318 kts | 359° |
| 2026-05-06 11:53 | -34.67249 | 147.49994 | 3989 ft | 319 kts | 359° |
| 2026-05-06 11:53 | -34.65039 | 147.50081 | 4006 ft | 317 kts | 359° |
| 2026-05-06 11:54 | -34.62834 | 147.50179 | 3982 ft | 318 kts | 359° |
| 2026-05-06 11:54 | -34.60616 | 147.50283 | 3915 ft | 319 kts | 359° |
| 2026-05-06 11:54 | -34.58394 | 147.50375 | 3876 ft | 319 kts | 359° |
| 2026-05-06 11:54 | -34.56180 | 147.50432 | 3874 ft | 317 kts | 358° |
| 2026-05-06 11:55 | -34.54006 | 147.50445 | 3895 ft | 316 kts | 357° |
| 2026-05-06 11:55 | -34.51809 | 147.50421 | 3883 ft | 316 kts | 356° |
| 2026-05-06 11:55 | -34.49612 | 147.50391 | 3847 ft | 317 kts | 356° |
| 2026-05-06 11:55 | -34.47371 | 147.50375 | 3799 ft | 318 kts | 357° |
| 2026-05-06 11:56 | -34.45196 | 147.50357 | 3753 ft | 314 kts | 356° |
| 2026-05-06 11:56 | -34.43023 | 147.50316 | 3668 ft | 309 kts | 356° |
| 2026-05-06 11:56 | -34.40885 | 147.50322 | 3622 ft | 307 kts | 4° |
| 2026-05-06 11:56 | -34.39085 | 147.51598 | 3580 ft | 310 kts | 56° |
| 2026-05-06 11:57 | -34.38684 | 147.54089 | 3412 ft | 308 kts | 98° |
| 2026-05-06 11:57 | -34.39038 | 147.56683 | 2944 ft | 316 kts | 102° |
| 2026-05-06 11:57 | -34.39592 | 147.59226 | 2724 ft | 307 kts | 118° |
| 2026-05-06 11:57 | -34.41016 | 147.60976 | 2742 ft | 287 kts | 158° |
| 2026-05-06 11:58 | -34.42916 | 147.61147 | 2803 ft | 275 kts | 199° |
| 2026-05-06 11:58 | -34.44367 | 147.59774 | 2937 ft | 266 kts | 240° |
| 2026-05-06 11:58 | -34.44562 | 147.57617 | 3092 ft | 268 kts | 286° |
| 2026-05-06 11:58 | -34.43325 | 147.55958 | 2957 ft | 288 kts | 333° |
| 2026-05-06 11:59 | -34.41333 | 147.56060 | 2812 ft | 302 kts | 29° |
| 2026-05-06 11:59 | -34.40317 | 147.58166 | 2764 ft | 301 kts | 91° |
| 2026-05-06 11:59 | -34.41238 | 147.60250 | 3013 ft | 283 kts | 151° |
| 2026-05-06 11:59 | -34.43027 | 147.60248 | 3218 ft | 269 kts | 218° |
| 2026-05-06 12:00 | -34.43530 | 147.58161 | 2791 ft | 286 kts | 288° |
| 2026-05-06 12:00 | -34.42133 | 147.56329 | 1926 ft | 313 kts | 320° |
| 2026-05-06 12:00 | -34.41023 | 147.55319 | 4759 ft | 71 kts | 142° |
| 2026-05-06 12:00 | -34.41290 | 147.55859 | 2851 ft | 186 kts | 324° |
| 2026-05-06 12:01 | -34.39510 | 147.54580 | 1766 ft | 299 kts | 356° |
| 2026-05-06 12:01 | -34.38536 | 147.56175 | 2831 ft | 270 kts | 113° |
| 2026-05-06 12:01 | -34.40120 | 147.57056 | 2352 ft | 281 kts | 186° |
| 2026-05-06 12:01 | -34.42141 | 147.56790 | 1864 ft | 285 kts | 189° |
| 2026-05-06 12:02 | -34.42384 | 147.56799 | 5575 ft | 140 kts | 1° |
| 2026-05-06 12:02 | -34.42704 | 147.56741 | 1685 ft | 304 kts | 192° |
| 2026-05-06 12:02 | -34.44679 | 147.56870 | 2279 ft | 282 kts | 135° |
| 2026-05-06 12:02 | -34.44233 | 147.58793 | 2190 ft | 294 kts | 11° |
| 2026-05-06 12:03 | -34.42269 | 147.58081 | 1487 ft | 304 kts | 333° |
| 2026-05-06 12:03 | -34.40779 | 147.57573 | 4146 ft | 214 kts | 7° |
| 2026-05-06 12:03 | -34.39158 | 147.57049 | 1609 ft | 317 kts | 330° |
| 2026-05-06 12:03 | -34.38576 | 147.54965 | 2040 ft | 283 kts | 232° |
| 2026-05-06 12:04 | -34.40403 | 147.54839 | 1635 ft | 299 kts | 154° |
| 2026-05-06 12:04 | -34.42191 | 147.56019 | 1720 ft | 286 kts | 151° |
| 2026-05-06 12:04 | -34.43903 | 147.57201 | 1752 ft | 278 kts | 151° |
| 2026-05-06 12:04 | -34.45583 | 147.58301 | 1930 ft | 281 kts | 154° |
| 2026-05-06 12:05 | -34.46681 | 147.60106 | 2370 ft | 283 kts | 90° |
| 2026-05-06 12:05 | -34.45462 | 147.61664 | 2634 ft | 278 kts | 359° |
| 2026-05-06 12:05 | -34.43916 | 147.60457 | 2217 ft | 284 kts | 294° |
| 2026-05-06 12:05 | -34.43487 | 147.58102 | 1878 ft | 290 kts | 278° |
| 2026-05-06 12:06 | -34.42493 | 147.56108 | 1961 ft | 289 kts | 333° |
| 2026-05-06 12:06 | -34.40645 | 147.56524 | 2119 ft | 293 kts | 48° |
| 2026-05-06 12:06 | -34.40495 | 147.58800 | 2309 ft | 287 kts | 126° |
| 2026-05-06 12:06 | -34.42190 | 147.59506 | 2571 ft | 271 kts | 203° |
| 2026-05-06 12:07 | -34.43268 | 147.57747 | 2391 ft | 278 kts | 262° |
| 2026-05-06 12:07 | -34.43057 | 147.55344 | 1756 ft | 296 kts | 279° |
| 2026-05-06 12:07 | -34.42713 | 147.52863 | 1471 ft | 299 kts | 280° |
| 2026-05-06 12:07 | -34.42338 | 147.50447 | 1579 ft | 279 kts | 281° |
| 2026-05-06 12:08 | -34.42192 | 147.50211 | 5180 ft | 148 kts | 96° |
| 2026-05-06 12:08 | -34.42038 | 147.49829 | 1397 ft | 304 kts | 282° |
| 2026-05-06 12:08 | -34.40590 | 147.48540 | 1702 ft | 290 kts | 20° |
| 2026-05-06 12:08 | -34.40073 | 147.50553 | 1705 ft | 286 kts | 126° |
| 2026-05-06 12:09 | -34.41860 | 147.51325 | 1539 ft | 286 kts | 184° |
| 2026-05-06 12:09 | -34.43168 | 147.51100 | 1500 ft | 286 kts | 190° |
| 2026-05-06 12:09 | -34.44833 | 147.50262 | 2552 ft | 245 kts | 237° |
| 2026-05-06 12:09 | -34.44403 | 147.47730 | 2769 ft | 272 kts | 320° |
| 2026-05-06 12:10 | -34.42510 | 147.47754 | 2273 ft | 305 kts | 39° |
| 2026-05-06 12:10 | -34.42027 | 147.50148 | 1535 ft | 319 kts | 98° |
| 2026-05-06 12:10 | -34.42254 | 147.51918 | 1771 ft | 298 kts | 100° |
| 2026-05-06 12:10 | -34.43153 | 147.53866 | 2442 ft | 263 kts | 150° |
| 2026-05-06 12:11 | -34.44747 | 147.54963 | 2493 ft | 266 kts | 155° |
| 2026-05-06 12:11 | -34.46277 | 147.56167 | 2603 ft | 272 kts | 130° |
| 2026-05-06 12:11 | -34.46287 | 147.58295 | 2830 ft | 280 kts | 44° |
| 2026-05-06 12:11 | -34.44451 | 147.58703 | 2668 ft | 286 kts | 341° |
| 2026-05-06 12:12 | -34.43100 | 147.57025 | 1916 ft | 297 kts | 287° |
| 2026-05-06 12:12 | -34.42734 | 147.54551 | 1646 ft | 297 kts | 278° |
| 2026-05-06 12:12 | -34.42447 | 147.52086 | 1507 ft | 294 kts | 278° |
| 2026-05-06 12:12 | -34.42153 | 147.49827 | 2696 ft | 143 kts | 279° |
| 2026-05-06 12:13 | -34.42179 | 147.50458 | 4524 ft | 101 kts | 99° |
| 2026-05-06 12:13 | -34.42021 | 147.48864 | 1397 ft | 301 kts | 254° |
| 2026-05-06 12:13 | -34.43640 | 147.48304 | 1544 ft | 290 kts | 134° |
| 2026-05-06 12:13 | -34.43471 | 147.50481 | 1477 ft | 288 kts | 45° |
| 2026-05-06 12:14 | -34.41692 | 147.50841 | 1544 ft | 278 kts | 324° |
| 2026-05-06 12:14 | -34.40430 | 147.49190 | 2316 ft | 257 kts | 330° |
| 2026-05-06 12:14 | -34.38968 | 147.49940 | 2427 ft | 281 kts | 78° |
| 2026-05-06 12:14 | -34.40084 | 147.51560 | 1744 ft | 291 kts | 176° |
| 2026-05-06 12:15 | -34.42150 | 147.51265 | 1203 ft | 303 kts | 189° |
| 2026-05-06 12:15 | -34.43064 | 147.51068 | 4243 ft | 143 kts | 360° |
| 2026-05-06 12:15 | -34.43175 | 147.51022 | 1318 ft | 291 kts | 191° |
| 2026-05-06 12:15 | -34.44108 | 147.49346 | 1762 ft | 272 kts | 286° |
| 2026-05-06 12:16 | -34.42748 | 147.47840 | 2058 ft | 276 kts | 338° |
| 2026-05-06 12:16 | -34.40870 | 147.47267 | 2229 ft | 283 kts | 345° |
| 2026-05-06 12:16 | -34.38918 | 147.46878 | 2271 ft | 287 kts | 1° |
| 2026-05-06 12:16 | -34.37292 | 147.48153 | 2337 ft | 296 kts | 63° |
| 2026-05-06 12:17 | -34.37308 | 147.50560 | 2149 ft | 297 kts | 121° |
| 2026-05-06 12:17 | -34.38993 | 147.51790 | 1651 ft | 299 kts | 179° |
| 2026-05-06 12:17 | -34.41040 | 147.51495 | 1472 ft | 294 kts | 187° |
| 2026-05-06 12:17 | -34.43024 | 147.51183 | 1468 ft | 282 kts | 189° |
| 2026-05-06 12:18 | -34.44921 | 147.50817 | 1714 ft | 270 kts | 191° |
| 2026-05-06 12:18 | -34.46733 | 147.50452 | 2422 ft | 251 kts | 192° |
| 2026-05-06 12:18 | -34.48059 | 147.49492 | 3273 ft | 232 kts | 255° |
| 2026-05-06 12:18 | -34.46986 | 147.48187 | 2312 ft | 297 kts | 6° |
| 2026-05-06 12:19 | -34.45042 | 147.49284 | 1620 ft | 315 kts | 29° |
| 2026-05-06 12:19 | -34.43849 | 147.50151 | 4459 ft | 60 kts | 209° |
| 2026-05-06 12:19 | -34.44027 | 147.50188 | 2021 ft | 265 kts | 31° |
| 2026-05-06 12:19 | -34.42015 | 147.50946 | 1433 ft | 306 kts | 345° |
| 2026-05-06 12:20 | -34.40514 | 147.49317 | 1809 ft | 279 kts | 311° |
| 2026-05-06 12:20 | -34.38778 | 147.49027 | 2278 ft | 287 kts | 36° |
| 2026-05-06 12:20 | -34.38589 | 147.51228 | 1846 ft | 297 kts | 134° |
| 2026-05-06 12:20 | -34.40519 | 147.51618 | 1322 ft | 302 kts | 189° |
| 2026-05-06 12:21 | -34.42605 | 147.51215 | 1241 ft | 297 kts | 190° |
| 2026-05-06 12:21 | -34.44604 | 147.50804 | 1544 ft | 277 kts | 190° |
| 2026-05-06 12:21 | -34.46357 | 147.50425 | 2692 ft | 248 kts | 193° |
| 2026-05-06 12:21 | -34.47678 | 147.49369 | 3019 ft | 247 kts | 258° |
| 2026-05-06 12:22 | -34.46492 | 147.48096 | 2082 ft | 302 kts | 9° |
| 2026-05-06 12:22 | -34.44474 | 147.49072 | 1500 ft | 313 kts | 24° |
| 2026-05-06 12:22 | -34.43047 | 147.50080 | 4197 ft | 198 kts | 54° |
| 2026-05-06 12:22 | -34.41849 | 147.51320 | 1944 ft | 314 kts | 19° |
| 2026-05-06 12:23 | -34.39745 | 147.51553 | 2033 ft | 296 kts | 328° |
| 2026-05-06 12:23 | -34.38792 | 147.49582 | 2390 ft | 272 kts | 280° |
| 2026-05-06 12:23 | -34.38409 | 147.47384 | 2934 ft | 262 kts | 281° |
| 2026-05-06 12:23 | -34.38462 | 147.45274 | 3267 ft | 258 kts | 238° |
| 2026-05-06 12:24 | -34.40069 | 147.44304 | 2686 ft | 291 kts | 180° |
| 2026-05-06 12:24 | -34.41844 | 147.45538 | 2078 ft | 315 kts | 123° |
| 2026-05-06 12:24 | -34.42474 | 147.48088 | 1517 ft | 321 kts | 100° |
| 2026-05-06 12:24 | -34.42706 | 147.49941 | 4243 ft | 21 kts | 271° |
| 2026-05-06 12:25 | -34.42630 | 147.49416 | 3037 ft | 116 kts | 105° |
| 2026-05-06 12:25 | -34.42999 | 147.51813 | 2039 ft | 280 kts | 99° |
| 2026-05-06 12:25 | -34.43311 | 147.54144 | 2571 ft | 281 kts | 101° |
| 2026-05-06 12:25 | -34.42894 | 147.56403 | 2550 ft | 291 kts | 50° |
| 2026-05-06 12:26 | -34.41128 | 147.57515 | 2388 ft | 294 kts | 10° |
| 2026-05-06 12:26 | -34.39097 | 147.57979 | 2275 ft | 296 kts | 7° |
| 2026-05-06 12:26 | -34.37169 | 147.57498 | 2289 ft | 289 kts | 322° |
| 2026-05-06 12:26 | -34.36089 | 147.55506 | 2169 ft | 287 kts | 283° |
| 2026-05-06 12:27 | -34.36352 | 147.53245 | 2051 ft | 283 kts | 235° |
| 2026-05-06 12:27 | -34.38098 | 147.52178 | 1641 ft | 298 kts | 190° |
| 2026-05-06 12:27 | -34.40188 | 147.51807 | 1232 ft | 306 kts | 188° |
| 2026-05-06 12:27 | -34.42295 | 147.51404 | 1081 ft | 305 kts | 189° |
| 2026-05-06 12:28 | -34.42900 | 147.50196 | 1850 ft | 185 kts | 333° |
| 2026-05-06 12:28 | -34.41759 | 147.50226 | 1962 ft | 150 kts | 4° |
| 2026-05-06 12:28 | -34.40757 | 147.50380 | 1971 ft | 145 kts | 3° |
| 2026-05-06 12:28 | -34.40001 | 147.50987 | 1667 ft | 133 kts | 82° |
| 2026-05-06 12:29 | -34.40544 | 147.51678 | 1242 ft | 129 kts | 179° |
| 2026-05-06 12:29 | -34.41449 | 147.51569 | 994 ft | 125 kts | 190° |
| 2026-05-06 12:29 | -34.42220 | 147.51420 | 911 ft | 94 kts | 189° |
| 2026-05-06 12:29 | -34.42712 | 147.51322 | 917 ft | 48 kts | 189° |
| 2026-05-06 12:30 | -34.42843 | 147.51311 | 920 ft | 7 kts | 135° |
| 2026-05-06 12:30 | -34.42856 | 147.51383 | 918 ft | 9 kts | 91° |
| 2026-05-06 12:30 | -34.42812 | 147.51411 | 917 ft | 7 kts | 4° |
| 2026-05-06 12:30 | -34.42767 | 147.51422 | 917 ft | 0 kts | 348° |
| 2026-05-06 12:31 | -34.42766 | 147.51421 | 917 ft | 2 kts | 340° |
| 2026-05-06 12:31 | -34.42761 | 147.51415 | 917 ft | 0 kts | 303° |